sensor_id;sensor_type;location;lat;lon;timestamp;temperature;humidity
15095;DHT22;7648;52.264;9.632;2023-04-25T00:01:07;7.50;99.90
15095;DHT22;7648;52.264;9.632;2023-04-25T00:05:11;7.50;99.90
15095;DHT22;7648;52.264;9.632;2023-04-25T00:09:15;7.50;99.90
15095;DHT22;7648;52.264;9.632;2023-04-25T00:13:17;7.40;99.90
15095;DHT22;7648;52.264;9.632;2023-04-25T00:17:19;7.40;99.90
15095;DHT22;7648;52.264;9.632;2023-04-25T00:21:23;7.40;99.90
15095;DHT22;7648;52.264;9.632;2023-04-25T00:25:26;7.30;99.90
15095;DHT22;7648;52.264;9.632;2023-04-25T00:29:28;7.30;99.90
15095;DHT22;7648;52.264;9.632;2023-04-25T00:33:29;7.30;99.90
15095;DHT22;7648;52.264;9.632;2023-04-25T00:37:33;7.30;99.90
15095;DHT22;7648;52.264;9.632;2023-04-25T00:41:35;7.20;99.90
15095;DHT22;7648;52.264;9.632;2023-04-25T00:45:39;7.20;99.90
15095;DHT22;7648;52.264;9.632;2023-04-25T00:49:41;7.20;99.90
15095;DHT22;7648;52.264;9.632;2023-04-25T00:53:45;7.20;99.90
15095;DHT22;7648;52.264;9.632;2023-04-25T00:57:48;7.20;99.90
15095;DHT22;7648;52.264;9.632;2023-04-25T01:01:50;7.20;99.90
15095;DHT22;7648;52.264;9.632;2023-04-25T01:05:52;7.20;99.90
15095;DHT22;7648;52.264;9.632;2023-04-25T01:09:56;7.20;99.90
15095;DHT22;7648;52.264;9.632;2023-04-25T01:13:58;7.20;99.90
15095;DHT22;7648;52.264;9.632;2023-04-25T01:18:01;7.20;99.90
15095;DHT22;7648;52.264;9.632;2023-04-25T01:22:04;7.20;99.90
15095;DHT22;7648;52.264;9.632;2023-04-25T01:26:06;7.20;99.90
15095;DHT22;7648;52.264;9.632;2023-04-25T01:30:10;7.20;99.90
15095;DHT22;7648;52.264;9.632;2023-04-25T01:34:14;7.20;99.90
15095;DHT22;7648;52.264;9.632;2023-04-25T01:38:17;7.20;99.90
15095;DHT22;7648;52.264;9.632;2023-04-25T01:42:19;7.20;99.90
15095;DHT22;7648;52.264;9.632;2023-04-25T01:46:22;7.20;99.90
15095;DHT22;7648;52.264;9.632;2023-04-25T01:50:23;7.20;99.90
15095;DHT22;7648;52.264;9.632;2023-04-25T01:54:27;7.20;99.90
15095;DHT22;7648;52.264;9.632;2023-04-25T01:58:29;7.10;99.90
15095;DHT22;7648;52.264;9.632;2023-04-25T02:02:43;7.10;99.90
15095;DHT22;7648;52.264;9.632;2023-04-25T02:06:57;7.10;99.90
15095;DHT22;7648;52.264;9.632;2023-04-25T02:11:08;7.10;99.90
15095;DHT22;7648;52.264;9.632;2023-04-25T02:15:16;7.10;99.90
15095;DHT22;7648;52.264;9.632;2023-04-25T02:19:24;7.10;99.90
15095;DHT22;7648;52.264;9.632;2023-04-25T02:23:26;7.00;99.90
15095;DHT22;7648;52.264;9.632;2023-04-25T02:27:30;7.00;99.90
15095;DHT22;7648;52.264;9.632;2023-04-25T02:31:33;7.00;99.90
15095;DHT22;7648;52.264;9.632;2023-04-25T02:35:35;7.00;99.90
15095;DHT22;7648;52.264;9.632;2023-04-25T02:39:37;6.90;99.90
15095;DHT22;7648;52.264;9.632;2023-04-25T02:43:40;6.90;99.90
15095;DHT22;7648;52.264;9.632;2023-04-25T02:47:42;6.70;99.90
15095;DHT22;7648;52.264;9.632;2023-04-25T02:51:45;6.60;99.90
15095;DHT22;7648;52.264;9.632;2023-04-25T02:55:47;6.50;99.90
15095;DHT22;7648;52.264;9.632;2023-04-25T02:59:51;6.50;99.90
15095;DHT22;7648;52.264;9.632;2023-04-25T03:03:53;6.50;99.90
15095;DHT22;7648;52.264;9.632;2023-04-25T03:07:55;6.60;99.90
15095;DHT22;7648;52.264;9.632;2023-04-25T03:11:57;6.60;99.90
15095;DHT22;7648;52.264;9.632;2023-04-25T03:16:00;6.60;99.90
15095;DHT22;7648;52.264;9.632;2023-04-25T03:20:05;6.60;99.90
15095;DHT22;7648;52.264;9.632;2023-04-25T03:24:09;6.60;99.90
15095;DHT22;7648;52.264;9.632;2023-04-25T03:28:11;6.60;99.90
15095;DHT22;7648;52.264;9.632;2023-04-25T03:32:14;6.60;99.90
15095;DHT22;7648;52.264;9.632;2023-04-25T03:36:16;6.60;99.90
15095;DHT22;7648;52.264;9.632;2023-04-25T03:40:18;6.60;99.90
15095;DHT22;7648;52.264;9.632;2023-04-25T03:44:40;6.60;99.90
15095;DHT22;7648;52.264;9.632;2023-04-25T03:48:44;6.60;99.90
15095;DHT22;7648;52.264;9.632;2023-04-25T03:52:52;6.60;99.90
15095;DHT22;7648;52.264;9.632;2023-04-25T03:56:55;6.50;99.90
15095;DHT22;7648;52.264;9.632;2023-04-25T04:01:00;6.50;99.90
15095;DHT22;7648;52.264;9.632;2023-04-25T04:05:06;6.40;99.90
15095;DHT22;7648;52.264;9.632;2023-04-25T04:09:12;6.40;99.90
15095;DHT22;7648;52.264;9.632;2023-04-25T04:13:16;6.40;99.90
15095;DHT22;7648;52.264;9.632;2023-04-25T04:17:19;6.40;99.90
15095;DHT22;7648;52.264;9.632;2023-04-25T04:21:22;6.40;99.90
15095;DHT22;7648;52.264;9.632;2023-04-25T04:25:25;6.40;99.90
15095;DHT22;7648;52.264;9.632;2023-04-25T04:29:39;6.40;99.90
15095;DHT22;7648;52.264;9.632;2023-04-25T04:33:47;6.40;99.90
15095;DHT22;7648;52.264;9.632;2023-04-25T04:37:51;6.50;99.90
15095;DHT22;7648;52.264;9.632;2023-04-25T04:41:55;6.50;99.90
15095;DHT22;7648;52.264;9.632;2023-04-25T04:46:12;6.50;99.90
15095;DHT22;7648;52.264;9.632;2023-04-25T04:50:28;6.50;99.90
15095;DHT22;7648;52.264;9.632;2023-04-25T04:54:54;6.50;99.90
15095;DHT22;7648;52.264;9.632;2023-04-25T04:59:17;6.50;99.90
15095;DHT22;7648;52.264;9.632;2023-04-25T05:03:43;6.50;99.90
15095;DHT22;7648;52.264;9.632;2023-04-25T05:07:56;6.60;99.90
15095;DHT22;7648;52.264;9.632;2023-04-25T05:12:15;6.60;99.90
15095;DHT22;7648;52.264;9.632;2023-04-25T05:16:39;6.60;99.90
15095;DHT22;7648;52.264;9.632;2023-04-25T05:21:04;6.60;99.90
15095;DHT22;7648;52.264;9.632;2023-04-25T05:25:16;6.60;99.90
15095;DHT22;7648;52.264;9.632;2023-04-25T05:29:41;6.60;99.90
15095;DHT22;7648;52.264;9.632;2023-04-25T05:34:09;6.60;99.90
15095;DHT22;7648;52.264;9.632;2023-04-25T05:38:18;6.70;99.90
15095;DHT22;7648;52.264;9.632;2023-04-25T05:42:40;6.80;99.90
15095;DHT22;7648;52.264;9.632;2023-04-25T05:46:59;6.80;99.90
15095;DHT22;7648;52.264;9.632;2023-04-25T05:51:21;6.80;99.90
15095;DHT22;7648;52.264;9.632;2023-04-25T05:55:23;6.80;99.90
15095;DHT22;7648;52.264;9.632;2023-04-25T05:59:25;6.90;99.90
15095;DHT22;7648;52.264;9.632;2023-04-25T06:03:28;6.90;99.90
15095;DHT22;7648;52.264;9.632;2023-04-25T06:07:32;7.00;99.90
15095;DHT22;7648;52.264;9.632;2023-04-25T06:11:34;7.00;99.90
15095;DHT22;7648;52.264;9.632;2023-04-25T06:15:37;7.00;99.90
15095;DHT22;7648;52.264;9.632;2023-04-25T06:19:40;7.00;99.90
15095;DHT22;7648;52.264;9.632;2023-04-25T06:23:43;7.00;99.90
15095;DHT22;7648;52.264;9.632;2023-04-25T06:27:47;7.00;99.90
15095;DHT22;7648;52.264;9.632;2023-04-25T06:31:49;7.00;99.90
15095;DHT22;7648;52.264;9.632;2023-04-25T06:35:53;7.20;99.90
15095;DHT22;7648;52.264;9.632;2023-04-25T06:39:59;7.20;99.90
15095;DHT22;7648;52.264;9.632;2023-04-25T06:44:01;7.20;99.90
15095;DHT22;7648;52.264;9.632;2023-04-25T06:48:29;7.20;99.90
15095;DHT22;7648;52.264;9.632;2023-04-25T06:52:34;7.30;99.90
15095;DHT22;7648;52.264;9.632;2023-04-25T06:56:36;7.30;99.90
15095;DHT22;7648;52.264;9.632;2023-04-25T07:00:49;7.30;99.90
15095;DHT22;7648;52.264;9.632;2023-04-25T07:04:52;7.30;99.90
15095;DHT22;7648;52.264;9.632;2023-04-25T07:08:58;7.40;99.90
15095;DHT22;7648;52.264;9.632;2023-04-25T07:13:00;7.60;99.90
15095;DHT22;7648;52.264;9.632;2023-04-25T07:17:02;7.60;99.90
15095;DHT22;7648;52.264;9.632;2023-04-25T07:21:07;7.50;99.90
15095;DHT22;7648;52.264;9.632;2023-04-25T07:25:12;7.80;99.90
15095;DHT22;7648;52.264;9.632;2023-04-25T07:29:16;8.00;99.90
15095;DHT22;7648;52.264;9.632;2023-04-25T07:33:18;7.80;99.90
15095;DHT22;7648;52.264;9.632;2023-04-25T07:37:21;7.70;99.90
15095;DHT22;7648;52.264;9.632;2023-04-25T07:41:41;7.70;99.90
15095;DHT22;7648;52.264;9.632;2023-04-25T07:45:48;7.60;99.90
15095;DHT22;7648;52.264;9.632;2023-04-25T07:49:53;7.60;99.90
15095;DHT22;7648;52.264;9.632;2023-04-25T07:53:55;7.60;99.90
15095;DHT22;7648;52.264;9.632;2023-04-25T07:57:59;7.70;99.90
15095;DHT22;7648;52.264;9.632;2023-04-25T08:02:03;7.80;99.90
15095;DHT22;7648;52.264;9.632;2023-04-25T08:06:06;7.80;99.90
15095;DHT22;7648;52.264;9.632;2023-04-25T08:10:14;7.90;99.90
15095;DHT22;7648;52.264;9.632;2023-04-25T08:14:18;7.80;99.90
15095;DHT22;7648;52.264;9.632;2023-04-25T08:18:20;7.80;99.90
15095;DHT22;7648;52.264;9.632;2023-04-25T08:22:24;8.10;99.90
15095;DHT22;7648;52.264;9.632;2023-04-25T08:26:34;8.20;99.90
15095;DHT22;7648;52.264;9.632;2023-04-25T08:30:39;8.10;99.90
15095;DHT22;7648;52.264;9.632;2023-04-25T08:34:45;8.10;99.90
15095;DHT22;7648;52.264;9.632;2023-04-25T08:38:48;8.10;99.90
15095;DHT22;7648;52.264;9.632;2023-04-25T08:42:53;8.30;99.90
15095;DHT22;7648;52.264;9.632;2023-04-25T08:46:57;8.50;99.90
15095;DHT22;7648;52.264;9.632;2023-04-25T08:51:06;8.60;99.90
15095;DHT22;7648;52.264;9.632;2023-04-25T08:55:09;8.50;99.90
15095;DHT22;7648;52.264;9.632;2023-04-25T08:59:12;8.30;99.90
15095;DHT22;7648;52.264;9.632;2023-04-25T09:03:17;8.00;99.90
15095;DHT22;7648;52.264;9.632;2023-04-25T09:07:21;8.00;99.90
15095;DHT22;7648;52.264;9.632;2023-04-25T09:11:24;8.10;99.90
15095;DHT22;7648;52.264;9.632;2023-04-25T09:15:27;8.30;99.90
15095;DHT22;7648;52.264;9.632;2023-04-25T09:19:46;8.30;99.90
15095;DHT22;7648;52.264;9.632;2023-04-25T09:24:00;8.40;99.90
15095;DHT22;7648;52.264;9.632;2023-04-25T09:28:04;8.20;99.90
15095;DHT22;7648;52.264;9.632;2023-04-25T09:32:16;8.40;99.90
15095;DHT22;7648;52.264;9.632;2023-04-25T09:36:26;8.80;99.90
15095;DHT22;7648;52.264;9.632;2023-04-25T09:40:52;9.20;99.90
15095;DHT22;7648;52.264;9.632;2023-04-25T09:45:29;9.30;99.90
15095;DHT22;7648;52.264;9.632;2023-04-25T09:49:33;8.90;99.90
15095;DHT22;7648;52.264;9.632;2023-04-25T09:53:42;8.70;99.90
15095;DHT22;7648;52.264;9.632;2023-04-25T09:57:54;8.60;99.90
15095;DHT22;7648;52.264;9.632;2023-04-25T10:01:59;9.00;99.90
15095;DHT22;7648;52.264;9.632;2023-04-25T10:06:12;9.40;99.90
15095;DHT22;7648;52.264;9.632;2023-04-25T10:10:18;9.60;99.90
15095;DHT22;7648;52.264;9.632;2023-04-25T10:14:26;9.80;99.90
15095;DHT22;7648;52.264;9.632;2023-04-25T10:18:29;9.90;99.90
15095;DHT22;7648;52.264;9.632;2023-04-25T10:22:34;9.20;99.90
15095;DHT22;7648;52.264;9.632;2023-04-25T10:26:38;8.90;99.90
15095;DHT22;7648;52.264;9.632;2023-04-25T10:30:57;8.80;99.90
15095;DHT22;7648;52.264;9.632;2023-04-25T10:35:10;8.80;99.90
15095;DHT22;7648;52.264;9.632;2023-04-25T10:39:12;8.90;99.90
15095;DHT22;7648;52.264;9.632;2023-04-25T10:43:37;8.90;99.90
15095;DHT22;7648;52.264;9.632;2023-04-25T10:47:44;9.10;99.90
15095;DHT22;7648;52.264;9.632;2023-04-25T10:51:46;9.30;99.90
15095;DHT22;7648;52.264;9.632;2023-04-25T10:55:51;9.60;99.90
15095;DHT22;7648;52.264;9.632;2023-04-25T10:59:57;9.60;99.90
15095;DHT22;7648;52.264;9.632;2023-04-25T11:03:59;9.50;99.90
15095;DHT22;7648;52.264;9.632;2023-04-25T11:08:01;9.30;99.90
15095;DHT22;7648;52.264;9.632;2023-04-25T11:12:04;9.20;99.90
15095;DHT22;7648;52.264;9.632;2023-04-25T11:16:08;9.20;99.90
15095;DHT22;7648;52.264;9.632;2023-04-25T11:20:10;9.40;99.90
15095;DHT22;7648;52.264;9.632;2023-04-25T11:24:14;9.40;99.90
15095;DHT22;7648;52.264;9.632;2023-04-25T11:28:45;9.20;99.90
15095;DHT22;7648;52.264;9.632;2023-04-25T11:32:48;9.00;99.90
15095;DHT22;7648;52.264;9.632;2023-04-25T11:36:51;8.90;99.90
15095;DHT22;7648;52.264;9.632;2023-04-25T11:40:54;8.90;99.90
15095;DHT22;7648;52.264;9.632;2023-04-25T11:44:56;8.80;99.90
15095;DHT22;7648;52.264;9.632;2023-04-25T11:49:00;8.40;99.90
15095;DHT22;7648;52.264;9.632;2023-04-25T11:53:01;8.10;99.90
15095;DHT22;7648;52.264;9.632;2023-04-25T11:57:04;7.90;99.90
15095;DHT22;7648;52.264;9.632;2023-04-25T12:01:05;7.90;99.90
15095;DHT22;7648;52.264;9.632;2023-04-25T12:05:09;8.00;99.90
15095;DHT22;7648;52.264;9.632;2023-04-25T12:09:12;8.20;99.90
15095;DHT22;7648;52.264;9.632;2023-04-25T12:13:20;8.40;99.90
15095;DHT22;7648;52.264;9.632;2023-04-25T12:17:22;8.80;99.90
15095;DHT22;7648;52.264;9.632;2023-04-25T12:21:28;9.10;99.90
15095;DHT22;7648;52.264;9.632;2023-04-25T12:25:37;9.70;99.90
15095;DHT22;7648;52.264;9.632;2023-04-25T12:29:40;10.00;99.90
15095;DHT22;7648;52.264;9.632;2023-04-25T12:33:51;10.20;99.90
15095;DHT22;7648;52.264;9.632;2023-04-25T12:37:54;10.40;99.90
15095;DHT22;7648;52.264;9.632;2023-04-25T12:41:57;10.20;99.90
15095;DHT22;7648;52.264;9.632;2023-04-25T12:45:59;10.10;99.90
15095;DHT22;7648;52.264;9.632;2023-04-25T12:50:01;9.90;99.90
15095;DHT22;7648;52.264;9.632;2023-04-25T12:54:05;9.80;99.90
15095;DHT22;7648;52.264;9.632;2023-04-25T12:58:08;9.70;99.90
15095;DHT22;7648;52.264;9.632;2023-04-25T13:02:10;9.40;99.90
15095;DHT22;7648;52.264;9.632;2023-04-25T13:06:13;9.20;99.90
15095;DHT22;7648;52.264;9.632;2023-04-25T13:10:16;8.70;99.90
15095;DHT22;7648;52.264;9.632;2023-04-25T13:14:18;8.40;99.90
15095;DHT22;7648;52.264;9.632;2023-04-25T13:18:20;8.10;99.90
15095;DHT22;7648;52.264;9.632;2023-04-25T13:22:22;7.80;99.90
15095;DHT22;7648;52.264;9.632;2023-04-25T13:26:25;7.60;99.90
15095;DHT22;7648;52.264;9.632;2023-04-25T13:30:27;7.60;99.90
15095;DHT22;7648;52.264;9.632;2023-04-25T13:34:29;7.80;99.90
15095;DHT22;7648;52.264;9.632;2023-04-25T13:38:31;8.20;99.90
15095;DHT22;7648;52.264;9.632;2023-04-25T13:42:34;9.00;99.90
15095;DHT22;7648;52.264;9.632;2023-04-25T13:46:36;9.80;99.90
15095;DHT22;7648;52.264;9.632;2023-04-25T13:50:38;10.40;99.90
15095;DHT22;7648;52.264;9.632;2023-04-25T13:54:40;10.90;99.90
15095;DHT22;7648;52.264;9.632;2023-04-25T13:58:43;11.30;99.90
15095;DHT22;7648;52.264;9.632;2023-04-25T14:02:45;11.30;99.90
15095;DHT22;7648;52.264;9.632;2023-04-25T14:06:47;10.80;99.90
15095;DHT22;7648;52.264;9.632;2023-04-25T14:10:49;10.30;99.90
15095;DHT22;7648;52.264;9.632;2023-04-25T14:14:52;9.90;99.90
15095;DHT22;7648;52.264;9.632;2023-04-25T14:18:54;9.60;99.90
15095;DHT22;7648;52.264;9.632;2023-04-25T14:22:57;9.50;99.90
15095;DHT22;7648;52.264;9.632;2023-04-25T14:26:59;9.50;99.90
15095;DHT22;7648;52.264;9.632;2023-04-25T14:31:02;9.70;99.90
15095;DHT22;7648;52.264;9.632;2023-04-25T14:35:05;9.90;99.90
15095;DHT22;7648;52.264;9.632;2023-04-25T14:39:07;10.70;99.90
15095;DHT22;7648;52.264;9.632;2023-04-25T14:43:10;11.40;99.90
15095;DHT22;7648;52.264;9.632;2023-04-25T14:47:13;11.70;99.90
15095;DHT22;7648;52.264;9.632;2023-04-25T14:51:17;11.70;99.90
15095;DHT22;7648;52.264;9.632;2023-04-25T14:55:19;11.30;99.90
15095;DHT22;7648;52.264;9.632;2023-04-25T14:59:21;10.90;99.90
15095;DHT22;7648;52.264;9.632;2023-04-25T15:03:24;10.50;99.90
15095;DHT22;7648;52.264;9.632;2023-04-25T15:07:26;9.90;99.90
15095;DHT22;7648;52.264;9.632;2023-04-25T15:11:28;9.70;99.90
15095;DHT22;7648;52.264;9.632;2023-04-25T15:15:30;9.60;99.90
15095;DHT22;7648;52.264;9.632;2023-04-25T15:19:33;9.80;99.90
15095;DHT22;7648;52.264;9.632;2023-04-25T15:23:35;10.10;99.90
15095;DHT22;7648;52.264;9.632;2023-04-25T15:27:38;10.30;99.90
15095;DHT22;7648;52.264;9.632;2023-04-25T15:31:42;10.40;99.90
15095;DHT22;7648;52.264;9.632;2023-04-25T15:35:45;10.20;99.90
15095;DHT22;7648;52.264;9.632;2023-04-25T15:39:47;10.10;99.90
15095;DHT22;7648;52.264;9.632;2023-04-25T15:43:48;10.10;99.90
15095;DHT22;7648;52.264;9.632;2023-04-25T15:47:51;10.00;99.90
15095;DHT22;7648;52.264;9.632;2023-04-25T15:51:55;9.90;99.90
15095;DHT22;7648;52.264;9.632;2023-04-25T15:55:57;9.90;99.90
15095;DHT22;7648;52.264;9.632;2023-04-25T16:00:00;9.90;99.90
15095;DHT22;7648;52.264;9.632;2023-04-25T16:04:12;9.70;99.90
15095;DHT22;7648;52.264;9.632;2023-04-25T16:08:16;9.50;99.90
15095;DHT22;7648;52.264;9.632;2023-04-25T16:12:18;9.40;99.90
15095;DHT22;7648;52.264;9.632;2023-04-25T16:16:20;9.20;99.90
15095;DHT22;7648;52.264;9.632;2023-04-25T16:20:22;9.20;99.90
15095;DHT22;7648;52.264;9.632;2023-04-25T16:24:27;9.20;99.90
15095;DHT22;7648;52.264;9.632;2023-04-25T16:28:29;9.40;99.90
15095;DHT22;7648;52.264;9.632;2023-04-25T16:32:31;9.90;99.90
15095;DHT22;7648;52.264;9.632;2023-04-25T16:36:33;10.30;99.90
15095;DHT22;7648;52.264;9.632;2023-04-25T16:40:36;10.40;99.90
15095;DHT22;7648;52.264;9.632;2023-04-25T16:44:38;10.20;99.90
15095;DHT22;7648;52.264;9.632;2023-04-25T16:48:40;9.80;99.90
15095;DHT22;7648;52.264;9.632;2023-04-25T16:52:42;9.50;99.90
15095;DHT22;7648;52.264;9.632;2023-04-25T16:56:45;9.30;99.90
15095;DHT22;7648;52.264;9.632;2023-04-25T17:00:47;9.20;99.90
15095;DHT22;7648;52.264;9.632;2023-04-25T17:04:49;9.00;99.90
15095;DHT22;7648;52.264;9.632;2023-04-25T17:08:50;8.90;99.90
15095;DHT22;7648;52.264;9.632;2023-04-25T17:12:54;8.70;99.90
15095;DHT22;7648;52.264;9.632;2023-04-25T17:16:56;8.20;99.90
15095;DHT22;7648;52.264;9.632;2023-04-25T17:20:58;7.70;99.90
15095;DHT22;7648;52.264;9.632;2023-04-25T17:25:01;7.50;99.90
15095;DHT22;7648;52.264;9.632;2023-04-25T17:29:04;7.50;99.90
15095;DHT22;7648;52.264;9.632;2023-04-25T17:33:06;7.60;99.90
15095;DHT22;7648;52.264;9.632;2023-04-25T17:37:08;7.80;99.90
15095;DHT22;7648;52.264;9.632;2023-04-25T17:41:14;7.90;99.90
15095;DHT22;7648;52.264;9.632;2023-04-25T17:45:18;8.00;99.90
15095;DHT22;7648;52.264;9.632;2023-04-25T17:49:20;8.00;99.90
15095;DHT22;7648;52.264;9.632;2023-04-25T17:53:22;7.90;99.90
15095;DHT22;7648;52.264;9.632;2023-04-25T17:57:24;7.80;99.90
15095;DHT22;7648;52.264;9.632;2023-04-25T18:01:27;7.70;99.90
15095;DHT22;7648;52.264;9.632;2023-04-25T18:05:29;7.60;99.90
15095;DHT22;7648;52.264;9.632;2023-04-25T18:09:32;7.50;99.90
15095;DHT22;7648;52.264;9.632;2023-04-25T18:13:34;7.50;99.90
15095;DHT22;7648;52.264;9.632;2023-04-25T18:17:38;7.50;99.90
15095;DHT22;7648;52.264;9.632;2023-04-25T18:21:40;7.50;99.90
15095;DHT22;7648;52.264;9.632;2023-04-25T18:25:42;7.40;99.90
15095;DHT22;7648;52.264;9.632;2023-04-25T18:29:46;7.40;99.90
15095;DHT22;7648;52.264;9.632;2023-04-25T18:33:49;7.30;99.90
15095;DHT22;7648;52.264;9.632;2023-04-25T18:37:51;7.30;99.90
15095;DHT22;7648;52.264;9.632;2023-04-25T18:41:53;7.20;99.90
15095;DHT22;7648;52.264;9.632;2023-04-25T18:45:56;7.10;99.90
15095;DHT22;7648;52.264;9.632;2023-04-25T18:50:00;7.00;99.90
15095;DHT22;7648;52.264;9.632;2023-04-25T18:54:04;6.90;99.90
15095;DHT22;7648;52.264;9.632;2023-04-25T18:58:09;6.90;99.90
15095;DHT22;7648;52.264;9.632;2023-04-25T19:02:12;6.90;99.90
15095;DHT22;7648;52.264;9.632;2023-04-25T19:06:16;6.90;99.90
15095;DHT22;7648;52.264;9.632;2023-04-25T19:10:18;6.90;99.90
15095;DHT22;7648;52.264;9.632;2023-04-25T19:14:20;6.90;99.90
15095;DHT22;7648;52.264;9.632;2023-04-25T19:18:22;6.90;99.90
15095;DHT22;7648;52.264;9.632;2023-04-25T19:22:26;6.90;99.90
15095;DHT22;7648;52.264;9.632;2023-04-25T19:26:27;7.00;99.90
15095;DHT22;7648;52.264;9.632;2023-04-25T19:30:29;7.00;99.90
15095;DHT22;7648;52.264;9.632;2023-04-25T19:34:32;7.00;99.90
15095;DHT22;7648;52.264;9.632;2023-04-25T19:38:35;7.10;99.90
15095;DHT22;7648;52.264;9.632;2023-04-25T19:42:37;7.10;99.90
15095;DHT22;7648;52.264;9.632;2023-04-25T19:46:39;7.10;99.90
15095;DHT22;7648;52.264;9.632;2023-04-25T19:50:41;7.00;99.90
15095;DHT22;7648;52.264;9.632;2023-04-25T19:54:44;7.00;99.90
15095;DHT22;7648;52.264;9.632;2023-04-25T19:58:46;7.00;99.90
15095;DHT22;7648;52.264;9.632;2023-04-25T20:02:48;7.00;99.90
15095;DHT22;7648;52.264;9.632;2023-04-25T20:06:50;6.90;99.90
15095;DHT22;7648;52.264;9.632;2023-04-25T20:10:53;6.90;99.90
15095;DHT22;7648;52.264;9.632;2023-04-25T20:14:55;6.80;99.90
15095;DHT22;7648;52.264;9.632;2023-04-25T20:18:58;6.70;99.90
15095;DHT22;7648;52.264;9.632;2023-04-25T20:23:01;6.60;99.90
15095;DHT22;7648;52.264;9.632;2023-04-25T20:27:04;6.60;99.90
15095;DHT22;7648;52.264;9.632;2023-04-25T20:31:07;6.50;99.90
15095;DHT22;7648;52.264;9.632;2023-04-25T20:35:09;6.50;99.90
15095;DHT22;7648;52.264;9.632;2023-04-25T20:39:12;6.40;99.90
15095;DHT22;7648;52.264;9.632;2023-04-25T20:43:16;6.40;99.90
15095;DHT22;7648;52.264;9.632;2023-04-25T20:47:19;6.30;99.90
15095;DHT22;7648;52.264;9.632;2023-04-25T20:51:21;6.20;99.90
15095;DHT22;7648;52.264;9.632;2023-04-25T20:55:23;6.10;99.90
15095;DHT22;7648;52.264;9.632;2023-04-25T20:59:27;5.90;99.90
15095;DHT22;7648;52.264;9.632;2023-04-25T21:03:29;5.80;99.90
15095;DHT22;7648;52.264;9.632;2023-04-25T21:07:31;5.70;99.90
15095;DHT22;7648;52.264;9.632;2023-04-25T21:11:33;5.70;99.90
15095;DHT22;7648;52.264;9.632;2023-04-25T21:15:36;5.70;99.90
15095;DHT22;7648;52.264;9.632;2023-04-25T21:19:38;5.70;99.90
15095;DHT22;7648;52.264;9.632;2023-04-25T21:23:41;5.70;99.90
15095;DHT22;7648;52.264;9.632;2023-04-25T21:27:42;5.60;99.90
15095;DHT22;7648;52.264;9.632;2023-04-25T21:31:46;5.50;99.90
15095;DHT22;7648;52.264;9.632;2023-04-25T21:35:48;5.50;99.90
15095;DHT22;7648;52.264;9.632;2023-04-25T21:39:50;5.40;99.90
15095;DHT22;7648;52.264;9.632;2023-04-25T21:43:52;5.30;99.90
15095;DHT22;7648;52.264;9.632;2023-04-25T21:47:55;5.30;99.90
15095;DHT22;7648;52.264;9.632;2023-04-25T21:51:57;5.20;99.90
15095;DHT22;7648;52.264;9.632;2023-04-25T21:55:59;5.20;99.90
15095;DHT22;7648;52.264;9.632;2023-04-25T22:00:01;5.20;99.90
15095;DHT22;7648;52.264;9.632;2023-04-25T22:04:07;5.10;99.90
15095;DHT22;7648;52.264;9.632;2023-04-25T22:08:09;5.10;99.90
15095;DHT22;7648;52.264;9.632;2023-04-25T22:12:11;5.00;99.90
15095;DHT22;7648;52.264;9.632;2023-04-25T22:16:38;5.00;99.90
15095;DHT22;7648;52.264;9.632;2023-04-25T22:20:41;5.00;99.90
15095;DHT22;7648;52.264;9.632;2023-04-25T22:24:44;5.00;99.90
15095;DHT22;7648;52.264;9.632;2023-04-25T22:28:47;4.90;99.90
15095;DHT22;7648;52.264;9.632;2023-04-25T22:32:49;4.90;99.90
15095;DHT22;7648;52.264;9.632;2023-04-25T22:36:53;4.80;99.90
15095;DHT22;7648;52.264;9.632;2023-04-25T22:40:55;4.70;99.90
15095;DHT22;7648;52.264;9.632;2023-04-25T22:44:58;4.70;99.90
15095;DHT22;7648;52.264;9.632;2023-04-25T22:49:00;4.70;99.90
15095;DHT22;7648;52.264;9.632;2023-04-25T22:53:03;4.70;99.90
15095;DHT22;7648;52.264;9.632;2023-04-25T22:57:05;4.70;99.90
15095;DHT22;7648;52.264;9.632;2023-04-25T23:01:07;4.70;99.90
15095;DHT22;7648;52.264;9.632;2023-04-25T23:05:10;4.70;99.90
15095;DHT22;7648;52.264;9.632;2023-04-25T23:09:14;4.70;99.90
15095;DHT22;7648;52.264;9.632;2023-04-25T23:13:16;4.60;99.90
15095;DHT22;7648;52.264;9.632;2023-04-25T23:17:18;4.60;99.90
15095;DHT22;7648;52.264;9.632;2023-04-25T23:21:20;4.60;99.90
15095;DHT22;7648;52.264;9.632;2023-04-25T23:25:24;4.50;99.90
15095;DHT22;7648;52.264;9.632;2023-04-25T23:29:26;4.50;99.90
15095;DHT22;7648;52.264;9.632;2023-04-25T23:33:28;4.40;99.90
15095;DHT22;7648;52.264;9.632;2023-04-25T23:37:32;4.30;99.90
15095;DHT22;7648;52.264;9.632;2023-04-25T23:41:35;4.20;99.90
15095;DHT22;7648;52.264;9.632;2023-04-25T23:45:37;4.20;99.90
15095;DHT22;7648;52.264;9.632;2023-04-25T23:49:39;4.20;99.90
15095;DHT22;7648;52.264;9.632;2023-04-25T23:53:41;4.20;99.90
15095;DHT22;7648;52.264;9.632;2023-04-25T23:57:44;4.10;99.90
